sensor_id;sensor_type;location;lat;lon;timestamp;pressure;altitude;pressure_sealevel;temperature;humidity
51245;BME280;37840;47.562;18.738;2023-12-04T00:02:17;100624.66;;;-2.36;70.94
51245;BME280;37840;47.562;18.738;2023-12-04T00:04:43;100622.91;;;-2.34;71.04
51245;BME280;37840;47.562;18.738;2023-12-04T00:07:09;100612.47;;;-2.28;71.07
51245;BME280;37840;47.562;18.738;2023-12-04T00:09:35;100610.72;;;-2.28;71.03
51245;BME280;37840;47.562;18.738;2023-12-04T00:12:01;100615.94;;;-2.26;70.83
51245;BME280;37840;47.562;18.738;2023-12-04T00:14:27;100609.84;;;-2.22;70.62
51245;BME280;37840;47.562;18.738;2023-12-04T00:16:53;100611.59;;;-2.22;70.72
51245;BME280;37840;47.562;18.738;2023-12-04T00:19:19;100615.06;;;-2.25;70.90
51245;BME280;37840;47.562;18.738;2023-12-04T00:21:45;100621.16;;;-2.24;70.98
51245;BME280;37840;47.562;18.738;2023-12-04T00:24:11;100619.44;;;-2.29;70.93
51245;BME280;37840;47.562;18.738;2023-12-04T00:26:37;100615.03;;;-2.22;70.38
51245;BME280;37840;47.562;18.738;2023-12-04T00:29:03;100621.16;;;-2.23;70.59
51245;BME280;37840;47.562;18.738;2023-12-04T00:31:28;100617.69;;;-2.25;70.91
51245;BME280;37840;47.562;18.738;2023-12-04T00:33:54;100617.69;;;-2.28;71.12
51245;BME280;37840;47.562;18.738;2023-12-04T00:36:20;100616.84;;;-2.35;70.97
51245;BME280;37840;47.562;18.738;2023-12-04T00:38:46;100615.09;;;-2.34;70.93
51245;BME280;37840;47.562;18.738;2023-12-04T00:41:13;100622.09;;;-2.38;71.10
51245;BME280;37840;47.562;18.738;2023-12-04T00:43:38;100616.87;;;-2.39;70.88
51245;BME280;37840;47.562;18.738;2023-12-04T00:46:04;100616.87;;;-2.39;70.89
51245;BME280;37840;47.562;18.738;2023-12-04T00:48:30;100617.75;;;-2.42;71.37
51245;BME280;37840;47.562;18.738;2023-12-04T00:50:57;100616.87;;;-2.39;71.19
51245;BME280;37840;47.562;18.738;2023-12-04T00:53:24;100609.91;;;-2.36;71.37
51245;BME280;37840;47.562;18.738;2023-12-04T00:55:50;100617.72;;;-2.36;71.29
51245;BME280;37840;47.562;18.738;2023-12-04T00:58:16;100607.28;;;-2.34;71.31
51245;BME280;37840;47.562;18.738;2023-12-04T01:00:42;100604.69;;;-2.33;71.14
51245;BME280;37840;47.562;18.738;2023-12-04T01:03:08;100611.62;;;-2.33;69.61
51245;BME280;37840;47.562;18.738;2023-12-04T01:05:34;100614.28;;;-2.44;69.53
51245;BME280;37840;47.562;18.738;2023-12-04T01:08:00;100615.16;;;-2.51;69.06
51245;BME280;37840;47.562;18.738;2023-12-04T01:10:26;100609.13;;;-2.61;69.52
51245;BME280;37840;47.562;18.738;2023-12-04T01:12:51;100615.22;;;-2.63;69.67
51245;BME280;37840;47.562;18.738;2023-12-04T01:15:17;100617.84;;;-2.63;69.67
51245;BME280;37840;47.562;18.738;2023-12-04T01:17:43;100620.44;;;-2.67;70.07
51245;BME280;37840;47.562;18.738;2023-12-04T01:20:09;100621.31;;;-2.68;70.45
51245;BME280;37840;47.562;18.738;2023-12-04T01:22:35;100630.84;;;-2.68;70.59
51245;BME280;37840;47.562;18.738;2023-12-04T01:25:01;100629.97;;;-2.69;70.55
51245;BME280;37840;47.562;18.738;2023-12-04T01:27:28;100630.00;;;-2.73;70.72
51245;BME280;37840;47.562;18.738;2023-12-04T01:29:54;100628.25;;;-2.73;70.37
51245;BME280;37840;47.562;18.738;2023-12-04T01:32:20;100642.16;;;-2.74;70.37
51245;BME280;37840;47.562;18.738;2023-12-04T01:34:46;100628.28;;;-2.82;69.57
51245;BME280;37840;47.562;18.738;2023-12-04T01:37:12;100633.50;;;-2.90;69.76
51245;BME280;37840;47.562;18.738;2023-12-04T01:39:38;100634.38;;;-2.94;69.48
51245;BME280;37840;47.562;18.738;2023-12-04T01:42:04;100637.88;;;-3.07;68.57
51245;BME280;37840;47.562;18.738;2023-12-04T01:44:30;100637.88;;;-3.19;69.29
51245;BME280;37840;47.562;18.738;2023-12-04T01:46:56;100633.53;;;-3.23;70.22
51245;BME280;37840;47.562;18.738;2023-12-04T01:49:22;100630.94;;;-3.25;70.34
51245;BME280;37840;47.562;18.738;2023-12-04T01:51:48;100639.63;;;-3.23;70.35
51245;BME280;37840;47.562;18.738;2023-12-04T01:54:15;100639.59;;;-3.26;70.41
51245;BME280;37840;47.562;18.738;2023-12-04T01:56:42;100643.06;;;-3.35;70.61
51245;BME280;37840;47.562;18.738;2023-12-04T01:59:09;100650.87;;;-3.36;70.92
51245;BME280;37840;47.562;18.738;2023-12-04T02:01:35;100643.94;;;-3.34;71.05
51245;BME280;37840;47.562;18.738;2023-12-04T02:04:02;100647.41;;;-3.37;70.93
51245;BME280;37840;47.562;18.738;2023-12-04T02:06:28;100644.81;;;-3.38;71.14
51245;BME280;37840;47.562;18.738;2023-12-04T02:08:54;100639.63;;;-3.41;70.38
51245;BME280;37840;47.562;18.738;2023-12-04T02:11:21;100645.66;;;-3.56;70.23
51245;BME280;37840;47.562;18.738;2023-12-04T02:13:47;100650.84;;;-3.62;69.81
51245;BME280;37840;47.562;18.738;2023-12-04T02:16:14;100649.09;;;-3.63;69.68
51245;BME280;37840;47.562;18.738;2023-12-04T02:18:43;100644.78;;;-3.69;70.45
51245;BME280;37840;47.562;18.738;2023-12-04T02:21:09;100645.66;;;-3.67;71.07
51245;BME280;37840;47.562;18.738;2023-12-04T02:23:34;100639.59;;;-3.64;71.45
51245;BME280;37840;47.562;18.738;2023-12-04T02:26:05;100633.53;;;-3.66;71.71
51245;BME280;37840;47.562;18.738;2023-12-04T02:28:35;100630.06;;;-3.73;72.11
51245;BME280;37840;47.562;18.738;2023-12-04T02:31:04;100643.91;;;-3.77;71.51
51245;BME280;37840;47.562;18.738;2023-12-04T02:33:31;100648.22;;;-3.81;70.67
51245;BME280;37840;47.562;18.738;2023-12-04T02:35:59;100650.81;;;-3.76;70.62
51245;BME280;37840;47.562;18.738;2023-12-04T02:38:27;100641.28;;;-3.74;70.86
51245;BME280;37840;47.562;18.738;2023-12-04T02:40:53;100643.03;;;-3.70;70.41
51245;BME280;37840;47.562;18.738;2023-12-04T02:43:19;100641.31;;;-3.68;70.57
51245;BME280;37840;47.562;18.738;2023-12-04T02:45:45;100638.72;;;-3.70;71.30
51245;BME280;37840;47.562;18.738;2023-12-04T02:48:11;100645.66;;;-3.73;71.43
51245;BME280;37840;47.562;18.738;2023-12-04T02:50:37;100650.81;;;-3.76;71.81
51245;BME280;37840;47.562;18.738;2023-12-04T02:53:03;100650.84;;;-3.75;72.15
51245;BME280;37840;47.562;18.738;2023-12-04T02:55:29;100650.84;;;-3.72;71.17
51245;BME280;37840;47.562;18.738;2023-12-04T02:57:55;100654.28;;;-3.74;71.31
51245;BME280;37840;47.562;18.738;2023-12-04T03:00:21;100651.72;;;-3.76;71.07
51245;BME280;37840;47.562;18.738;2023-12-04T03:02:46;100645.62;;;-3.76;71.92
51245;BME280;37840;47.562;18.738;2023-12-04T03:05:12;100643.03;;;-3.76;72.28
51245;BME280;37840;47.562;18.738;2023-12-04T03:07:38;100638.72;;;-3.76;71.51
51245;BME280;37840;47.562;18.738;2023-12-04T03:10:05;100649.94;;;-3.78;71.04
51245;BME280;37840;47.562;18.738;2023-12-04T03:12:31;100656.03;;;-3.82;70.90
51245;BME280;37840;47.562;18.738;2023-12-04T03:14:57;100662.09;;;-3.86;70.56
51245;BME280;37840;47.562;18.738;2023-12-04T03:17:23;100658.59;;;-3.90;70.87
51245;BME280;37840;47.562;18.738;2023-12-04T03:19:48;100657.75;;;-3.91;71.26
51245;BME280;37840;47.562;18.738;2023-12-04T03:22:15;100649.94;;;-3.89;71.90
51245;BME280;37840;47.562;18.738;2023-12-04T03:24:41;100653.38;;;-3.93;72.01
51245;BME280;37840;47.562;18.738;2023-12-04T03:27:07;100663.78;;;-3.92;72.37
51245;BME280;37840;47.562;18.738;2023-12-04T03:29:33;100665.56;;;-3.84;72.05
51245;BME280;37840;47.562;18.738;2023-12-04T03:31:59;100668.16;;;-3.84;72.15
51245;BME280;37840;47.562;18.738;2023-12-04T03:34:25;100663.78;;;-3.87;72.36
51245;BME280;37840;47.562;18.738;2023-12-04T03:36:51;100659.47;;;-3.85;72.13
51245;BME280;37840;47.562;18.738;2023-12-04T03:39:17;100657.75;;;-3.83;72.43
51245;BME280;37840;47.562;18.738;2023-12-04T03:41:43;100655.16;;;-3.86;72.35
51245;BME280;37840;47.562;18.738;2023-12-04T03:44:09;100652.53;;;-3.87;72.66
51245;BME280;37840;47.562;18.738;2023-12-04T03:46:35;100656.03;;;-3.84;72.61
51245;BME280;37840;47.562;18.738;2023-12-04T03:49:01;100656.91;;;-3.80;72.33
51245;BME280;37840;47.562;18.738;2023-12-04T03:51:26;100650.84;;;-3.82;72.53
51245;BME280;37840;47.562;18.738;2023-12-04T03:53:52;100651.69;;;-3.79;72.40
51245;BME280;37840;47.562;18.738;2023-12-04T03:56:18;100651.72;;;-3.80;71.89
51245;BME280;37840;47.562;18.738;2023-12-04T03:58:44;100643.03;;;-3.84;71.85
51245;BME280;37840;47.562;18.738;2023-12-04T04:01:10;100636.97;;;-3.84;72.25
51245;BME280;37840;47.562;18.738;2023-12-04T04:03:36;100640.44;;;-3.82;72.54
51245;BME280;37840;47.562;18.738;2023-12-04T04:06:02;100626.56;;;-3.80;72.63
51245;BME280;37840;47.562;18.738;2023-12-04T04:08:28;100622.22;;;-3.81;73.00
51245;BME280;37840;47.562;18.738;2023-12-04T04:10:54;100632.63;;;-3.81;72.90
51245;BME280;37840;47.562;18.738;2023-12-04T04:13:20;100631.78;;;-3.84;72.66
51245;BME280;37840;47.562;18.738;2023-12-04T04:15:46;100637.81;;;-3.87;72.55
51245;BME280;37840;47.562;18.738;2023-12-04T04:18:12;100622.22;;;-3.87;72.37
51245;BME280;37840;47.562;18.738;2023-12-04T04:20:37;100626.56;;;-3.91;72.40
51245;BME280;37840;47.562;18.738;2023-12-04T04:23:03;100634.34;;;-3.94;72.63
51245;BME280;37840;47.562;18.738;2023-12-04T04:25:29;100635.22;;;-3.95;72.78
51245;BME280;37840;47.562;18.738;2023-12-04T04:27:55;100640.41;;;-3.95;72.38
51245;BME280;37840;47.562;18.738;2023-12-04T04:30:21;100646.44;;;-3.91;72.17
51245;BME280;37840;47.562;18.738;2023-12-04T04:32:47;100649.06;;;-3.93;72.33
51245;BME280;37840;47.562;18.738;2023-12-04T04:35:13;100646.44;;;-3.91;71.90
51245;BME280;37840;47.562;18.738;2023-12-04T04:37:39;100635.22;;;-3.95;72.09
51245;BME280;37840;47.562;18.738;2023-12-04T04:40:05;100646.44;;;-3.91;72.18
51245;BME280;37840;47.562;18.738;2023-12-04T04:42:31;100637.81;;;-3.90;72.52
51245;BME280;37840;47.562;18.738;2023-12-04T04:44:57;100653.41;;;-3.88;71.82
51245;BME280;37840;47.562;18.738;2023-12-04T04:47:23;100647.31;;;-3.94;72.32
51245;BME280;37840;47.562;18.738;2023-12-04T04:49:49;100655.13;;;-3.94;72.55
51245;BME280;37840;47.562;18.738;2023-12-04T04:52:15;100647.31;;;-3.94;72.79
51245;BME280;37840;47.562;18.738;2023-12-04T04:54:41;100657.75;;;-3.91;72.37
51245;BME280;37840;47.562;18.738;2023-12-04T04:57:07;100660.31;;;-3.92;72.14
51245;BME280;37840;47.562;18.738;2023-12-04T04:59:33;100666.38;;;-3.93;71.73
51245;BME280;37840;47.562;18.738;2023-12-04T05:01:59;100663.78;;;-3.95;71.20
51245;BME280;37840;47.562;18.738;2023-12-04T05:04:25;100665.47;;;-4.06;70.17
51245;BME280;37840;47.562;18.738;2023-12-04T05:06:51;100676.72;;;-4.13;69.85
51245;BME280;37840;47.562;18.738;2023-12-04T05:09:17;100666.31;;;-4.16;70.34
51245;BME280;37840;47.562;18.738;2023-12-04T05:11:43;100657.63;;;-4.24;70.58
51245;BME280;37840;47.562;18.738;2023-12-04T05:14:09;100658.47;;;-4.30;70.14
51245;BME280;37840;47.562;18.738;2023-12-04T05:16:35;100662.75;;;-4.34;70.50
51245;BME280;37840;47.562;18.738;2023-12-04T05:19:01;100671.41;;;-4.39;70.44
51245;BME280;37840;47.562;18.738;2023-12-04T05:21:27;100668.75;;;-4.47;70.87
51245;BME280;37840;47.562;18.738;2023-12-04T05:23:53;100669.62;;;-4.48;70.28
51245;BME280;37840;47.562;18.738;2023-12-04T05:26:19;100662.72;;;-4.46;70.49
51245;BME280;37840;47.562;18.738;2023-12-04T05:28:45;100661.00;;;-4.44;70.47
51245;BME280;37840;47.562;18.738;2023-12-04T05:31:11;100659.25;;;-4.46;70.58
51245;BME280;37840;47.562;18.738;2023-12-04T05:33:37;100666.16;;;-4.50;70.83
51245;BME280;37840;47.562;18.738;2023-12-04T05:36:04;100661.84;;;-4.53;70.77
51245;BME280;37840;47.562;18.738;2023-12-04T05:38:30;100666.16;;;-4.50;70.68
51245;BME280;37840;47.562;18.738;2023-12-04T05:40:56;100667.91;;;-4.47;70.85
51245;BME280;37840;47.562;18.738;2023-12-04T05:43:22;100673.09;;;-4.44;70.92
51245;BME280;37840;47.562;18.738;2023-12-04T05:45:48;100665.34;;;-4.41;70.95
51245;BME280;37840;47.562;18.738;2023-12-04T05:48:13;100666.19;;;-4.44;71.47
51245;BME280;37840;47.562;18.738;2023-12-04T05:50:40;100674.00;;;-4.39;71.31
51245;BME280;37840;47.562;18.738;2023-12-04T05:53:06;100672.28;;;-4.37;70.93
51245;BME280;37840;47.562;18.738;2023-12-04T05:55:33;100671.41;;;-4.36;71.01
51245;BME280;37840;47.562;18.738;2023-12-04T05:57:59;100668.81;;;-4.38;71.26
51245;BME280;37840;47.562;18.738;2023-12-04T06:00:25;100669.66;;;-4.36;71.37
51245;BME280;37840;47.562;18.738;2023-12-04T06:02:51;100670.56;;;-4.35;71.22
51245;BME280;37840;47.562;18.738;2023-12-04T06:05:17;100654.97;;;-4.34;70.88
51245;BME280;37840;47.562;18.738;2023-12-04T06:07:43;100655.84;;;-4.39;71.14
51245;BME280;37840;47.562;18.738;2023-12-04T06:10:09;100657.56;;;-4.41;71.24
51245;BME280;37840;47.562;18.738;2023-12-04T06:12:35;100655.84;;;-4.39;71.30
51245;BME280;37840;47.562;18.738;2023-12-04T06:15:01;100657.56;;;-4.41;71.62
51245;BME280;37840;47.562;18.738;2023-12-04T06:17:28;100658.38;;;-4.47;71.96
51245;BME280;37840;47.562;18.738;2023-12-04T06:19:54;100664.44;;;-4.46;71.36
51245;BME280;37840;47.562;18.738;2023-12-04T06:22:20;100668.75;;;-4.48;71.60
51245;BME280;37840;47.562;18.738;2023-12-04T06:24:48;100673.09;;;-4.47;71.83
51245;BME280;37840;47.562;18.738;2023-12-04T06:27:18;100672.28;;;-4.34;72.32
51245;BME280;37840;47.562;18.738;2023-12-04T06:29:46;100668.94;;;-4.12;72.44
51245;BME280;37840;47.562;18.738;2023-12-04T06:32:13;100675.09;;;-3.80;70.93
51245;BME280;37840;47.562;18.738;2023-12-04T06:34:39;100673.41;;;-3.51;69.88
51245;BME280;37840;47.562;18.738;2023-12-04T06:37:10;100676.00;;;-3.21;68.50
51245;BME280;37840;47.562;18.738;2023-12-04T06:39:37;100677.72;;;-2.91;67.31
51245;BME280;37840;47.562;18.738;2023-12-04T06:42:07;100678.53;;;-2.49;66.04
51245;BME280;37840;47.562;18.738;2023-12-04T06:44:36;100678.41;;;-2.09;65.24
51245;BME280;37840;47.562;18.738;2023-12-04T06:47:03;100683.38;;;-1.66;63.98
51245;BME280;37840;47.562;18.738;2023-12-04T06:49:32;100697.06;;;-1.27;62.84
51245;BME280;37840;47.562;18.738;2023-12-04T06:51:58;100688.00;;;-0.86;61.98
51245;BME280;37840;47.562;18.738;2023-12-04T06:54:25;100682.28;;;-0.38;59.75
51245;BME280;37840;47.562;18.738;2023-12-04T06:56:50;100689.72;;;-0.03;58.31
51245;BME280;37840;47.562;18.738;2023-12-04T06:59:20;100684.75;;;0.44;56.89
51245;BME280;37840;47.562;18.738;2023-12-04T07:01:47;100684.97;;;0.87;56.58
51245;BME280;37840;47.562;18.738;2023-12-04T07:04:15;100690.34;;;1.29;54.81
51245;BME280;37840;47.562;18.738;2023-12-04T07:06:46;100687.13;;;1.63;53.58
51245;BME280;37840;47.562;18.738;2023-12-04T07:09:12;100688.97;;;1.59;52.31
51245;BME280;37840;47.562;18.738;2023-12-04T07:11:38;100691.41;;;1.67;52.02
51245;BME280;37840;47.562;18.738;2023-12-04T07:14:04;100687.63;;;1.37;52.29
51245;BME280;37840;47.562;18.738;2023-12-04T07:16:30;100678.53;;;1.55;52.24
51245;BME280;37840;47.562;18.738;2023-12-04T07:18:56;100690.41;;;2.16;51.24
51245;BME280;37840;47.562;18.738;2023-12-04T07:21:22;100682.44;;;2.61;50.32
51245;BME280;37840;47.562;18.738;2023-12-04T07:23:48;100677.28;;;3.27;50.25
51245;BME280;37840;47.562;18.738;2023-12-04T07:26:14;100686.94;;;3.92;49.00
51245;BME280;37840;47.562;18.738;2023-12-04T07:28:40;100686.41;;;4.11;47.23
51245;BME280;37840;47.562;18.738;2023-12-04T07:31:06;100679.09;;;3.59;48.21
51245;BME280;37840;47.562;18.738;2023-12-04T07:33:35;100675.13;;;3.43;48.91
51245;BME280;37840;47.562;18.738;2023-12-04T07:36:01;100673.66;;;3.33;49.13
51245;BME280;37840;47.562;18.738;2023-12-04T07:38:27;100678.47;;;3.17;50.15
51245;BME280;37840;47.562;18.738;2023-12-04T07:40:53;100688.78;;;2.89;50.60
51245;BME280;37840;47.562;18.738;2023-12-04T07:43:19;100688.47;;;2.65;51.97
51245;BME280;37840;47.562;18.738;2023-12-04T07:45:45;100686.00;;;2.18;53.27
51245;BME280;37840;47.562;18.738;2023-12-04T07:48:11;100694.75;;;1.75;55.60
51245;BME280;37840;47.562;18.738;2023-12-04T07:50:38;100693.25;;;1.14;57.15
51245;BME280;37840;47.562;18.738;2023-12-04T07:53:05;100692.69;;;0.96;58.79
51245;BME280;37840;47.562;18.738;2023-12-04T07:55:31;100700.91;;;0.72;59.75
51245;BME280;37840;47.562;18.738;2023-12-04T07:57:57;100693.31;;;0.55;61.67
51245;BME280;37840;47.562;18.738;2023-12-04T08:00:24;100688.28;;;0.43;61.81
51245;BME280;37840;47.562;18.738;2023-12-04T08:02:51;100693.69;;;0.29;61.85
51245;BME280;37840;47.562;18.738;2023-12-04T08:05:17;100693.59;;;0.35;61.55
51245;BME280;37840;47.562;18.738;2023-12-04T08:07:43;100692.28;;;0.67;61.01
51245;BME280;37840;47.562;18.738;2023-12-04T08:10:08;100694.56;;;0.88;60.19
51245;BME280;37840;47.562;18.738;2023-12-04T08:12:34;100690.19;;;1.85;58.03
51245;BME280;37840;47.562;18.738;2023-12-04T08:15:00;100689.53;;;2.94;54.89
51245;BME280;37840;47.562;18.738;2023-12-04T08:17:27;100689.59;;;3.91;52.83
51245;BME280;37840;47.562;18.738;2023-12-04T08:19:53;100681.13;;;4.68;49.23
51245;BME280;37840;47.562;18.738;2023-12-04T08:22:20;100694.47;;;5.92;46.61
51245;BME280;37840;47.562;18.738;2023-12-04T08:24:45;100679.12;;;6.51;44.03
51245;BME280;37840;47.562;18.738;2023-12-04T08:27:12;100676.38;;;6.76;43.96
51245;BME280;37840;47.562;18.738;2023-12-04T08:29:39;100683.41;;;6.76;43.54
51245;BME280;37840;47.562;18.738;2023-12-04T08:32:06;100691.06;;;7.46;42.00
51245;BME280;37840;47.562;18.738;2023-12-04T08:34:32;100684.72;;;7.30;41.82
51245;BME280;37840;47.562;18.738;2023-12-04T08:36:58;100685.47;;;7.11;43.19
51245;BME280;37840;47.562;18.738;2023-12-04T08:39:24;100687.41;;;7.28;42.81
51245;BME280;37840;47.562;18.738;2023-12-04T08:41:50;100688.56;;;6.57;43.71
51245;BME280;37840;47.562;18.738;2023-12-04T08:44:16;100687.13;;;6.26;44.52
51245;BME280;37840;47.562;18.738;2023-12-04T08:46:42;100684.09;;;6.13;45.63
51245;BME280;37840;47.562;18.738;2023-12-04T08:49:09;100684.72;;;5.21;47.19
51245;BME280;37840;47.562;18.738;2023-12-04T08:51:35;100689.72;;;4.17;50.80
51245;BME280;37840;47.562;18.738;2023-12-04T08:54:04;100699.53;;;3.81;51.88
51245;BME280;37840;47.562;18.738;2023-12-04T08:56:30;100699.97;;;3.31;53.59
51245;BME280;37840;47.562;18.738;2023-12-04T08:58:56;100701.37;;;2.35;57.01
51245;BME280;37840;47.562;18.738;2023-12-04T09:01:23;100702.59;;;2.19;58.28
51245;BME280;37840;47.562;18.738;2023-12-04T09:03:51;100702.94;;;1.58;61.24
51245;BME280;37840;47.562;18.738;2023-12-04T09:06:17;100710.16;;;1.46;62.81
51245;BME280;37840;47.562;18.738;2023-12-04T09:08:43;100709.94;;;1.59;62.54
51245;BME280;37840;47.562;18.738;2023-12-04T09:11:09;100709.41;;;1.87;61.43
51245;BME280;37840;47.562;18.738;2023-12-04T09:13:35;100703.34;;;1.83;62.40
51245;BME280;37840;47.562;18.738;2023-12-04T09:16:02;100708.47;;;1.90;62.48
51245;BME280;37840;47.562;18.738;2023-12-04T09:18:30;100706.91;;;1.79;63.09
51245;BME280;37840;47.562;18.738;2023-12-04T09:20:56;100702.16;;;1.98;63.06
51245;BME280;37840;47.562;18.738;2023-12-04T09:23:22;100698.22;;;1.77;63.46
51245;BME280;37840;47.562;18.738;2023-12-04T09:25:48;100694.44;;;1.46;65.50
51245;BME280;37840;47.562;18.738;2023-12-04T09:28:14;100693.53;;;1.47;67.05
51245;BME280;37840;47.562;18.738;2023-12-04T09:30:40;100692.97;;;1.77;64.55
51245;BME280;37840;47.562;18.738;2023-12-04T09:33:06;100689.16;;;1.94;63.54
51245;BME280;37840;47.562;18.738;2023-12-04T09:35:32;100684.87;;;1.88;65.59
51245;BME280;37840;47.562;18.738;2023-12-04T09:37:58;100671.44;;;2.03;64.62
51245;BME280;37840;47.562;18.738;2023-12-04T09:40:25;100668.63;;;1.71;64.04
51245;BME280;37840;47.562;18.738;2023-12-04T09:42:51;100665.59;;;1.47;65.74
51245;BME280;37840;47.562;18.738;2023-12-04T09:45:18;100668.03;;;1.56;66.61
51245;BME280;37840;47.562;18.738;2023-12-04T09:47:47;100667.06;;;1.14;67.54
51245;BME280;37840;47.562;18.738;2023-12-04T09:50:14;100657.59;;;0.52;69.14
51245;BME280;37840;47.562;18.738;2023-12-04T09:52:41;100653.19;;;0.56;70.57
51245;BME280;37840;47.562;18.738;2023-12-04T09:55:08;100649.72;;;0.52;71.01
51245;BME280;37840;47.562;18.738;2023-12-04T09:57:34;100652.31;;;0.55;71.28
51245;BME280;37840;47.562;18.738;2023-12-04T10:00:02;100640.50;;;0.84;70.26
51245;BME280;37840;47.562;18.738;2023-12-04T10:02:29;100631.88;;;0.79;70.28
51245;BME280;37840;47.562;18.738;2023-12-04T10:04:55;100627.69;;;1.18;69.00
51245;BME280;37840;47.562;18.738;2023-12-04T10:07:21;100625.28;;;1.06;66.42
51245;BME280;37840;47.562;18.738;2023-12-04T10:09:47;100626.16;;;0.54;67.31
51245;BME280;37840;47.562;18.738;2023-12-04T10:12:13;100617.03;;;0.78;67.21
51245;BME280;37840;47.562;18.738;2023-12-04T10:14:39;100611.13;;;0.65;66.71
51245;BME280;37840;47.562;18.738;2023-12-04T10:17:15;100611.44;;;0.47;68.65
51245;BME280;37840;47.562;18.738;2023-12-04T10:19:44;100618.84;;;0.18;68.12
51245;BME280;37840;47.562;18.738;2023-12-04T10:22:10;100603.91;;;0.27;66.19
51245;BME280;37840;47.562;18.738;2023-12-04T10:24:39;100607.34;;;0.30;66.49
51245;BME280;37840;47.562;18.738;2023-12-04T10:27:07;100599.81;;;0.09;67.33
51245;BME280;37840;47.562;18.738;2023-12-04T10:29:48;100600.41;;;0.28;68.43
51245;BME280;37840;47.562;18.738;2023-12-04T10:32:18;100586.50;;;0.23;67.23
51245;BME280;37840;47.562;18.738;2023-12-04T10:34:47;100589.09;;;0.26;67.71
51245;BME280;37840;47.562;18.738;2023-12-04T10:37:14;100584.75;;;0.23;68.75
51245;BME280;37840;47.562;18.738;2023-12-04T10:39:50;100583.81;;;0.29;71.34
51245;BME280;37840;47.562;18.738;2023-12-04T10:42:28;100583.38;;;0.56;69.33
51245;BME280;37840;47.562;18.738;2023-12-04T10:44:56;100576.97;;;0.20;68.03
51245;BME280;37840;47.562;18.738;2023-12-04T10:47:23;100574.38;;;0.18;70.03
51245;BME280;37840;47.562;18.738;2023-12-04T10:49:50;100576.06;;;0.21;70.17
51245;BME280;37840;47.562;18.738;2023-12-04T10:52:17;100581.53;;;0.07;69.95
51245;BME280;37840;47.562;18.738;2023-12-04T10:54:48;100569.28;;;0.11;72.12
51245;BME280;37840;47.562;18.738;2023-12-04T10:57:21;100566.44;;;0.25;72.80
51245;BME280;37840;47.562;18.738;2023-12-04T10:59:51;100562.91;;;0.27;72.27
51245;BME280;37840;47.562;18.738;2023-12-04T11:02:27;100560.94;;;0.42;72.28
51245;BME280;37840;47.562;18.738;2023-12-04T11:04:58;100566.41;;;0.26;70.30
51245;BME280;37840;47.562;18.738;2023-12-04T11:07:27;100562.09;;;0.24;70.18
51245;BME280;37840;47.562;18.738;2023-12-04T11:09:53;100544.56;;;0.30;70.23
51245;BME280;37840;47.562;18.738;2023-12-04T11:12:25;100546.28;;;0.31;70.50
51245;BME280;37840;47.562;18.738;2023-12-04T11:14:56;100545.47;;;0.28;71.28
51245;BME280;37840;47.562;18.738;2023-12-04T11:17:25;100546.28;;;0.30;71.30
51245;BME280;37840;47.562;18.738;2023-12-04T11:20:10;100542.84;;;0.28;71.06
51245;BME280;37840;47.562;18.738;2023-12-04T11:22:38;100536.63;;;0.35;72.75
51245;BME280;37840;47.562;18.738;2023-12-04T11:25:06;100532.16;;;0.40;69.74
51245;BME280;37840;47.562;18.738;2023-12-04T11:27:34;100529.78;;;0.26;70.40
51245;BME280;37840;47.562;18.738;2023-12-04T11:30:01;100518.56;;;0.19;71.13
51245;BME280;37840;47.562;18.738;2023-12-04T11:32:31;100521.09;;;0.24;71.58
51245;BME280;37840;47.562;18.738;2023-12-04T11:34:59;100527.69;;;0.48;69.97
51245;BME280;37840;47.562;18.738;2023-12-04T11:37:28;100516.38;;;0.46;72.23
51245;BME280;37840;47.562;18.738;2023-12-04T11:39:54;100515.88;;;0.26;70.53
51245;BME280;37840;47.562;18.738;2023-12-04T11:42:24;100515.69;;;0.35;71.60
51245;BME280;37840;47.562;18.738;2023-12-04T11:44:57;100514.78;;;0.36;72.09
51245;BME280;37840;47.562;18.738;2023-12-04T11:47:24;100510.41;;;0.38;72.16
51245;BME280;37840;47.562;18.738;2023-12-04T11:49:50;100513.91;;;0.38;73.01
51245;BME280;37840;47.562;18.738;2023-12-04T11:52:16;100505.13;;;0.43;72.03
51245;BME280;37840;47.562;18.738;2023-12-04T11:55:01;100498.22;;;0.38;72.12
51245;BME280;37840;47.562;18.738;2023-12-04T11:57:35;100493.00;;;0.35;71.28
51245;BME280;37840;47.562;18.738;2023-12-04T12:02:41;100474.41;;;0.52;72.41
51245;BME280;37840;47.562;18.738;2023-12-04T12:05:11;100473.38;;;0.59;70.42
51245;BME280;37840;47.562;18.738;2023-12-04T12:07:37;100470.81;;;0.58;70.77
51245;BME280;37840;47.562;18.738;2023-12-04T12:10:04;100456.63;;;0.70;71.75
51245;BME280;37840;47.562;18.738;2023-12-04T12:12:30;100447.94;;;0.68;73.30
51245;BME280;37840;47.562;18.738;2023-12-04T12:14:57;100438.28;;;0.70;70.98
51245;BME280;37840;47.562;18.738;2023-12-04T12:17:24;100447.47;;;0.47;70.96
51245;BME280;37840;47.562;18.738;2023-12-04T12:19:54;100443.31;;;0.34;70.94
51245;BME280;37840;47.562;18.738;2023-12-04T12:22:23;100441.34;;;0.47;71.69
51245;BME280;37840;47.562;18.738;2023-12-04T12:24:50;100444.09;;;0.40;72.08
51245;BME280;37840;47.562;18.738;2023-12-04T12:27:16;100439.81;;;0.35;72.63
51245;BME280;37840;47.562;18.738;2023-12-04T12:29:42;100426.84;;;0.30;73.35
51245;BME280;37840;47.562;18.738;2023-12-04T12:32:08;100434.56;;;0.36;71.82
51245;BME280;37840;47.562;18.738;2023-12-04T12:34:34;100421.50;;;0.36;72.95
51245;BME280;37840;47.562;18.738;2023-12-04T12:37:03;100421.53;;;0.33;73.13
51245;BME280;37840;47.562;18.738;2023-12-04T12:39:29;100423.81;;;0.52;75.27
51245;BME280;37840;47.562;18.738;2023-12-04T12:41:56;100420.91;;;0.66;72.39
51245;BME280;37840;47.562;18.738;2023-12-04T12:44:21;100418.28;;;0.67;71.75
51245;BME280;37840;47.562;18.738;2023-12-04T12:46:48;100420.91;;;0.66;71.98